Weather observations for the past three days for
Tangier Island Airport
Metric (Imperial)
Date Time (edt) Wind (kph) Vis. (km) Weather Sky Cond. Temperature (ºC) Relative Humidity Wind Chill (°C) Heat Index (°C) Pressure Precipitation (cm)
Air Dwpt 6 hour altimeter (cm) sea level (mb) 1 hr 3 hr 6 hr
Max. Min.
07 14:35 N 9 0.00 Overcast OVC048 15 7.9 63% 75.79 0.0
07 14:15 N 7 0.00 Overcast OVC048 14.8 8 64% 75.79 0.0
07 13:55 Calm 0.00 Overcast OVC044 14.6 8.3 27.4 0.2 66% 75.84 0.0
07 13:35 Calm 0.00 Overcast OVC044 14.5 8.6 68% 75.87 0.0
07 12:35 NE 13 0.00 Overcast OVC044 14.3 7.9 66% 75.87 0.0
07 12:15 NE 13 0.00 Overcast OVC044 14.3 7.7 65% 75.87 0.0
07 11:55 N 11 0.00 Overcast OVC044 14.4 7.9 65% 75.9 0.0
07 10:55 N 15 0.00 Overcast OVC042 14.2 7.8 66% 75.95 0.0
07 10:35 N 13 G 28 0.00 Overcast OVC040 14.2 7.7 65% 75.92 0.0
07 10:15 N 22 G 30 0.00 Overcast OVC038 14.1 6.9 62% 75.92 0.0
07 09:55 N 20 G 35 0.00 Overcast OVC036 14.1 6.4 60% 75.9 0.0
07 09:35 N 19 G 33 0.00 Overcast OVC034 14.2 7.6 65% 75.9 0.0
07 09:15 N 22 0.00 Overcast OVC032 14.3 8.6 69% 75.87 0.0
07 08:35 N 28 G 39 0.00 Overcast OVC033 14.5 9.3 71% 75.9 0.0
07 06:55 N 28 G 39 0.00 Overcast BKN012 BKN021 OVC027 15 12.7 86% 75.82 0.0 0.03
07 05:55 N 30 0.00 NULL NULL 16.2 14.1 87% 75.79 0.0
07 05:35 N 28 G 33 0.00 NULL NULL 16.2 14.2 88% 75.74 0.0
07 05:15 N 35 G 44 0.00 Breezy NULL 16.6 14.6 88% 75.74 0.0
07 04:15 NW 19 0.00 NULL NULL 18 16.9 93% 75.74 0.0
07 03:15 Calm 0.00 NULL NULL 18.4 17 92% 75.62 0.0
07 02:35 S 15 0.00 NULL NULL 18.4 17 92% 75.67 0.0
07 01:35 S 19 0.00 Overcast OVC075 18.4 16.9 91% 75.69 0.0
07 01:15 S 19 0.00 Overcast OVC085 18.5 16.9 90% 75.72 0.0
07 00:35 S 11 0.00 Overcast OVC095 18.5 16.8 90% 75.72 0.0
07 00:15 S 19 0.00 NULL NULL 18.5 16.7 89% 75.72 0.0
06 23:55 S 19 0.00 NULL NULL 18.6 16.6 88% 75.72 0.0
06 23:35 S 15 0.00 NULL NULL 18.3 16.6 90% 75.72 0.0
06 23:15 S 11 0.00 NULL NULL 18.3 16.5 89% 75.72 0.0
06 22:55 SW 15 0.00 NULL NULL 18.5 16.5 88% 75.72 0.0
06 22:35 S 15 0.00 NULL NULL 18.5 16.4 88% 75.72 0.0
06 22:15 S 15 0.00 NULL NULL 18.9 16.3 85% 75.72 0.0
06 21:55 S 22 0.00 Fair CLR 18.9 16.3 85% 75.74 0.0
06 21:35 S 24 0.00 Fair CLR 18.6 16.2 86% 75.74 0.0
06 21:15 S 17 0.00 Fair CLR 18.8 16 84% 75.74 0.0
06 20:55 S 17 0.00 Fair CLR 18.8 16.1 84% 75.74 0.0
06 20:35 S 15 0.00 Fair CLR 19 16 83% 75.74 0.0
06 20:15 S 15 0.00 Fair CLR 19.1 16.1 83% 75.74 0.0
06 19:55 S 15 0.00 Fair CLR 19.5 16.2 27.4 0.2 81% 75.74 0.0
06 19:35 S 13 0.00 Fair CLR 19.7 16.3 81% 75.72 0.0
06 19:15 SW 19 0.00 Fair CLR 19.8 16.3 80% 75.72 0.0
06 18:55 SW 19 0.00 Partly Cloudy SCT070 20 16.4 80% 75.72 0.0
06 18:35 S 19 0.00 Mostly Cloudy BKN070 20 16.5 80% 75.74 0.0
06 17:55 S 19 0.00 Partly Cloudy SCT060 19.4 16.8 85% 75.72 0.0
06 17:35 S 11 0.00 NULL NULL 19.4 16.6 84% 75.74 0.0
06 17:15 S 17 0.00 Fair CLR 19.7 16.5 82% 75.72 0.0
06 16:55 S 17 0.00 Fair CLR 19.8 16.7 82% 75.69 0.0
06 16:35 S 15 0.00 Partly Cloudy SCT110 19.8 16.6 82% 75.72 0.0
06 16:15 S 13 G 26 0.00 Partly Cloudy SCT110 19.6 16.5 82% 75.72 0.0
06 15:55 S 20 G 33 0.00 Partly Cloudy SCT033 SCT042 SCT048 19.5 16.5 83% 75.72 0.0
06 15:35 S 24 G 33 0.00 Mostly Cloudy SCT033 SCT046 BKN065 19.3 16.5 84% 75.77 0.0
06 15:15 S 26 G 31 0.00 Mostly Cloudy SCT028 SCT050 BKN070 19.2 16.6 85% 75.79 0.0
06 14:55 S 26 0.00 Mostly Cloudy SCT028 SCT060 BKN110 19 16.8 87% 75.82 0.0
06 14:15 S 22 G 30 0.00 NULL NULL 19.4 16.5 83% 75.84 0.0
06 13:55 S 26 G 31 0.00 Mostly Cloudy SCT055 SCT070 BKN120 19.5 16.9 27.4 0.2 85% 75.87 0.0 0.03
06 13:35 S 24 0.00 NULL NULL 18.5 16.6 89% 75.84 0.0
06 13:15 S 24 0.00 NULL NULL 18.4 16.5 89% 75.9 0.0
06 12:55 S 26 0.00 NULL NULL 18.3 16.7 90% 75.92 0.0 0.03
06 12:35 S 19 0.00 NULL NULL 18.3 16.8 91% 75.95 0.0 0.03
06 11:15 S 28 0.00 Overcast OVC100 19 15.8 82% 75.97 0.0
06 10:55 S 28 G 37 0.00 Mostly Cloudy SCT080 BKN110 18.9 15.7 82% 75.97 0.0
06 10:35 S 30 G 41 0.00 Partly Cloudy SCT120 18.6 15.7 83% 75.97 0.0
06 10:15 S 22 0.00 Fair CLR 18.9 15.7 82% 75.97 0.0
06 09:35 S 26 G 37 0.00 Fair CLR 18.9 15.5 81% 76 0.0
06 09:15 S 26 G 37 0.00 Fair CLR 19 15.2 79% 76 0.0
06 08:55 S 30 G 37 0.00 Fair CLR 19.4 15.3 77% 76 0.0
06 08:15 S 28 G 41 0.00 Fair CLR 18.4 15.1 81% 76 0.0
06 07:55 S 33 G 43 0.00 Fair and Breezy CLR 18.2 15 27.4 0.2 82% 76 0.0
06 07:35 S 31 G 44 0.00 Fair CLR 17.8 14.9 83% 75.97 0.0
06 07:15 S 33 G 41 0.00 Fair and Breezy CLR 17.8 14.8 83% 76 0.0
06 06:55 S 31 G 43 0.00 Fair CLR 17.6 14.9 84% 76 0.0
06 06:35 S 28 G 37 0.00 NULL NULL 17.4 14.7 84% 75.97 0.0
06 06:15 S 30 G 41 0.00 NULL NULL 17.2 14.7 85% 76 0.0
06 05:55 S 28 G 37 0.00 Fair CLR 17.2 14.6 85% 76 0.0
06 05:35 S 30 G 37 0.00 Fair CLR 17.1 14.6 85% 76 0.0
06 05:15 S 28 G 37 0.00 NULL NULL 17.2 14.7 85% 76 0.0
06 04:55 S 26 G 35 0.00 NULL NULL 17.3 14.8 85% 76 0.0
06 04:35 S 28 G 35 0.00 NULL NULL 17.4 14.8 85% 76 0.0
06 03:35 S 30 G 35 0.00 Fair CLR 17.6 14.6 83% 76.02 0.0
06 01:55 S 30 G 39 0.00 Fair CLR 18 14.6 27.4 0.2 81% 76.05 0.0
06 01:35 S 31 G 41 0.00 Fair CLR 18.1 14.7 81% 76.05 0.0
06 00:55 S 30 G 41 0.00 Fair CLR 18.4 14.7 79% 76.07 0.0
06 00:35 S 30 G 44 0.00 Fair CLR 18.6 14.7 78% 76.07 0.0
06 00:15 S 31 G 44 0.00 Fair CLR 18.6 14.9 79% 76.07 0.0
05 23:55 S 31 G 44 0.00 Fair CLR 18.8 15 79% 76.07 0.0
05 23:35 S 31 G 41 0.00 Fair CLR 19 15 78% 76.05 0.0
05 23:15 S 30 G 43 0.00 Fair CLR 19.1 15 77% 76.07 0.0
05 22:55 S 31 G 43 0.00 Fair CLR 19.3 15 76% 76.07 0.0
05 22:35 S 30 G 43 0.00 Fair CLR 19.5 15 75% 76.07 0.0
05 22:15 S 30 G 43 0.00 Fair CLR 19.8 15.1 74% 76.05 0.0
05 21:55 S 31 G 41 0.00 Fair CLR 20 15.1 74% 76.05 0.0
05 21:35 S 28 G 39 0.00 Fair CLR 19.9 15.3 75% 76.05 0.0
05 21:15 S 26 G 33 0.00 Fair CLR 19.3 15.5 79% 76.02 0.0
05 20:55 S 17 0.00 Fair CLR 19.3 15.6 79% 76 0.0
05 10:15 S 19 0.00 Fair CLR 19.5 13.9 70% 76.15 0.0
05 09:55 S 24 0.00 Fair CLR 19.1 13.6 71% 76.12 0.0
05 09:35 S 24 0.00 Fair CLR 18.9 13.6 71% 76.15 0.0
05 09:15 S 19 0.00 Fair CLR 18.7 13.5 72% 76.15 0.0
05 08:55 S 17 0.00 Fair CLR 18.6 13.3 71% 76.15 0.0
05 08:35 S 17 0.00 Fair CLR 18.2 13.2 73% 76.15 0.0
05 08:15 S 20 0.00 Fair CLR 17.8 13.3 75% 76.12 0.0
05 07:55 S 20 0.00 Fair CLR 17.4 13.2 27.4 0.2 77% 76.12 0.0
05 07:35 S 20 G 30 0.00 Fair CLR 17.2 12.9 76% 76.12 0.0
05 07:15 S 22 G 31 0.00 Fair CLR 16.8 13 78% 76.12 0.0
05 06:55 S 22 0.00 Fair CLR 16.6 13 79% 76.1 0.0
05 06:35 S 22 0.00 Fair CLR 16.5 13.1 80% 76.07 0.0
05 06:15 S 22 0.00 Fair CLR 16.5 13.1 80% 76.05 0.0
05 05:55 S 22 0.00 Fair CLR 16.5 13.1 80% 76.05 0.0
05 05:15 S 22 0.00 Fair CLR 16.5 13 80% 76.02 0.0
05 04:55 S 26 0.00 Fair CLR 16.6 13.1 80% 76.02 0.0
05 02:35 S 28 0.00 Fair CLR 17.5 13.2 76% 76 0.0
05 00:55 S 30 0.00 Fair CLR 17.8 13.6 77% 76 0.0
05 00:35 S 31 G 41 0.00 Fair CLR 18 13.7 76% 76 0.0
05 00:15 S 31 G 41 0.00 Fair CLR 18 13.7 76% 76 0.0
04 23:55 S 30 G 43 0.00 Partly Cloudy SCT120 18.2 13.7 75% 76 0.0
04 23:35 S 31 G 44 0.00 Fair CLR 18.2 13.7 75% 76 0.0
04 23:15 S 33 G 43 0.00 Fair and Breezy CLR 18.2 13.8 76% 76 0.0
04 22:55 S 28 G 41 0.00 Fair CLR 18.4 13.7 74% 76 0.0
04 18:55 SE 19 0.00 Fair CLR 20.2 13.1 64% 75.92 0.0
Date Time (edt) Wind (kph) Vis. (km) Weather Sky Cond. Air Dwpt Max. Min. Relative Humidity Wind Chill (°C) Heat Index (°C) altimeter (cm) sea level (mb) 1 hr 3 hr 6 hr
6 hour
Temperature (ºC) Pressure Precipitation (cm)